createdAt,value
2019-05-10T00:00:27.206Z,9.98
2019-05-10T00:01:49.427Z,9.97
2019-05-10T00:03:11.508Z,9.97
2019-05-10T00:04:33.883Z,9.97
2019-05-10T00:05:55.905Z,9.92
2019-05-10T00:07:18.378Z,9.83
2019-05-10T00:08:40.947Z,9.67
2019-05-10T00:09:44.631Z,9.79
2019-05-10T00:10:50.881Z,9.80
2019-05-10T00:11:58.379Z,9.78
2019-05-10T00:13:10.184Z,9.75
2019-05-10T00:14:16.255Z,9.72
2019-05-10T00:15:22.392Z,9.70
2019-05-10T00:16:27.024Z,9.69
2019-05-10T00:17:31.453Z,9.65
2019-05-10T00:18:36.089Z,9.53
2019-05-10T00:19:40.535Z,9.53
2019-05-10T00:20:45.158Z,9.52
2019-05-10T00:21:49.599Z,9.55
2019-05-10T00:22:55.294Z,9.37
2019-05-10T00:23:59.748Z,9.39
2019-05-10T00:25:06.860Z,9.39
2019-05-10T00:26:12.985Z,9.39
2019-05-10T00:27:17.739Z,9.41
2019-05-10T00:28:22.174Z,9.40
2019-05-10T00:29:27.886Z,9.37
2019-05-10T00:30:32.320Z,9.17
2019-05-10T00:31:37.013Z,9.22
2019-05-10T00:32:41.450Z,9.21
2019-05-10T00:33:46.129Z,9.21
2019-05-10T00:34:50.569Z,9.22
2019-05-10T00:35:55.188Z,9.25
2019-05-10T00:36:59.623Z,9.25
2019-05-10T00:38:04.316Z,9.25
2019-05-10T00:39:08.842Z,9.25
2019-05-10T00:40:13.467Z,9.27
2019-05-10T00:41:17.902Z,9.20
2019-05-10T00:42:22.533Z,9.25
2019-05-10T00:43:26.974Z,9.22
2019-05-10T00:44:32.973Z,9.16
2019-05-10T00:45:38.381Z,9.20
2019-05-10T00:46:43.014Z,9.17
2019-05-10T00:47:47.461Z,9.21
2019-05-10T00:48:52.080Z,9.10
2019-05-10T00:49:56.538Z,9.10
2019-05-10T00:51:01.501Z,9.21
2019-05-10T00:52:06.301Z,9.12
2019-05-10T00:53:10.918Z,9.21
2019-05-10T00:54:15.376Z,9.20
2019-05-10T00:55:20.022Z,9.19
2019-05-10T00:56:24.440Z,9.23
2019-05-10T00:57:29.053Z,9.25
2019-05-10T00:58:33.786Z,9.23
2019-05-10T00:59:38.718Z,9.23
2019-05-10T01:00:43.151Z,9.20
2019-05-10T01:01:47.781Z,9.26
2019-05-10T01:02:52.215Z,9.27
2019-05-10T01:03:56.849Z,9.33
2019-05-10T01:05:01.291Z,9.23
2019-05-10T01:06:05.935Z,9.34
2019-05-10T01:07:10.362Z,9.39
2019-05-10T01:08:14.984Z,9.38
2019-05-10T01:09:19.568Z,9.29
2019-05-10T01:10:24.211Z,9.17
2019-05-10T01:11:28.705Z,9.17
2019-05-10T01:12:33.321Z,9.28
2019-05-10T01:13:37.763Z,9.29
2019-05-10T01:14:42.689Z,9.32
2019-05-10T01:15:47.115Z,9.27
2019-05-10T01:16:51.744Z,9.35
2019-05-10T01:17:57.464Z,9.23
2019-05-10T01:19:02.492Z,9.33
2019-05-10T01:20:08.567Z,9.27
2019-05-10T01:21:13.563Z,9.24
2019-05-10T01:22:18.077Z,9.24
2019-05-10T01:23:22.692Z,9.41
2019-05-10T01:24:27.515Z,9.42
2019-05-10T01:25:35.621Z,9.57
2019-05-10T01:26:38.665Z,9.57
2019-05-10T01:27:43.286Z,9.49
2019-05-10T01:28:48.016Z,9.71
2019-05-10T01:29:52.661Z,9.69
2019-05-10T01:30:57.105Z,9.67
2019-05-10T01:32:01.799Z,9.69
2019-05-10T01:33:06.233Z,9.71
2019-05-10T01:34:10.859Z,9.73
2019-05-10T01:35:15.321Z,9.77
2019-05-10T01:36:22.993Z,9.83
2019-05-10T01:37:27.804Z,9.86
2019-05-10T01:38:32.423Z,9.86
2019-05-10T01:39:36.874Z,9.88
2019-05-10T01:40:41.549Z,9.87
2019-05-10T01:41:46.014Z,9.93
2019-05-10T01:42:50.632Z,9.98
2019-05-10T01:43:55.077Z,9.99
2019-05-10T01:45:00.009Z,9.99
2019-05-10T01:46:04.728Z,9.97
2019-05-10T01:47:09.685Z,9.99
2019-05-10T01:48:14.468Z,9.92
2019-05-10T01:49:19.088Z,9.97
2019-05-10T01:50:23.843Z,10.02
2019-05-10T01:51:28.788Z,9.98
2019-05-10T01:52:33.190Z,9.99
2019-05-10T01:53:37.806Z,9.99
2019-05-10T01:54:42.244Z,9.98
2019-05-10T01:55:52.283Z,9.99
2019-05-10T01:56:53.021Z,10.05
2019-05-10T01:57:57.653Z,10.08
2019-05-10T01:59:02.095Z,10.07
2019-05-10T02:00:09.050Z,10.10
2019-05-10T02:01:13.557Z,10.14
2019-05-10T02:02:18.182Z,10.14
2019-05-10T02:03:22.623Z,10.12
2019-05-10T02:04:28.231Z,10.12
2019-05-10T02:05:33.017Z,10.14
2019-05-10T02:06:37.660Z,10.10
2019-05-10T02:07:42.100Z,10.13
2019-05-10T02:08:46.730Z,10.15
2019-05-10T02:09:51.186Z,10.14
2019-05-10T02:10:55.828Z,10.11
2019-05-10T02:12:00.266Z,10.12
2019-05-10T02:13:04.890Z,10.14
2019-05-10T02:14:10.612Z,10.17
2019-05-10T02:15:15.599Z,10.17
2019-05-10T02:16:20.039Z,10.17
2019-05-10T02:17:25.015Z,10.20
2019-05-10T02:18:29.460Z,10.23
2019-05-10T02:19:34.088Z,10.23
2019-05-10T02:20:38.549Z,10.18
2019-05-10T02:21:43.205Z,10.18
2019-05-10T02:22:47.619Z,10.12
2019-05-10T02:23:52.245Z,10.21
2019-05-10T02:24:56.689Z,10.23
2019-05-10T02:26:09.446Z,10.23
2019-05-10T02:27:07.469Z,10.23
2019-05-10T02:28:12.094Z,10.24
2019-05-10T02:29:16.536Z,10.27
2019-05-10T02:30:21.185Z,10.25
2019-05-10T02:31:25.696Z,10.24
2019-05-10T02:32:30.627Z,10.25
2019-05-10T02:33:35.064Z,10.28
2019-05-10T02:34:39.705Z,10.28
2019-05-10T02:35:44.169Z,10.29
2019-05-10T02:36:48.787Z,10.28
2019-05-10T02:37:53.736Z,10.28
2019-05-10T02:38:58.337Z,10.29
2019-05-10T02:40:03.067Z,10.31
2019-05-10T02:41:08.079Z,10.32
2019-05-10T02:42:12.525Z,10.32
2019-05-10T02:43:17.152Z,10.30
2019-05-10T02:44:21.917Z,10.32
2019-05-10T02:45:26.559Z,10.32
2019-05-10T02:46:31.024Z,10.32
2019-05-10T02:47:36.597Z,10.32
2019-05-10T02:48:41.031Z,10.31
2019-05-10T02:49:45.654Z,10.34
2019-05-10T02:50:50.766Z,10.31
2019-05-10T02:51:55.396Z,10.31
2019-05-10T02:52:59.840Z,10.33
2019-05-10T02:54:05.602Z,10.32
2019-05-10T02:55:10.187Z,10.31
2019-05-10T02:56:29.780Z,10.35
2019-05-10T02:57:22.420Z,10.33
2019-05-10T02:58:27.787Z,10.33
2019-05-10T02:59:34.742Z,10.34
2019-05-10T03:00:41.485Z,10.33
2019-05-10T03:01:46.500Z,10.30
2019-05-10T03:02:53.059Z,10.31
2019-05-10T03:04:00.551Z,10.24
2019-05-10T03:05:06.813Z,10.24
2019-05-10T03:06:14.321Z,10.21
2019-05-10T03:07:20.465Z,10.28
2019-05-10T03:08:25.445Z,10.28
2019-05-10T03:09:32.223Z,10.33
2019-05-10T03:10:38.613Z,10.31
2019-05-10T03:11:49.220Z,10.36
2019-05-10T03:12:57.439Z,10.35
2019-05-10T03:14:05.121Z,10.38
2019-05-10T03:15:11.604Z,10.37
2019-05-10T03:16:19.307Z,10.37
2019-05-10T03:17:24.783Z,10.36
2019-05-10T03:18:31.639Z,10.40
2019-05-10T03:19:37.148Z,10.41
2019-05-10T03:20:42.431Z,10.44
2019-05-10T03:21:49.928Z,10.43
2019-05-10T03:22:55.581Z,10.52
2019-05-10T03:24:00.025Z,10.59
2019-05-10T03:25:05.897Z,10.64
2019-05-10T03:26:10.366Z,10.65
2019-05-10T03:27:14.986Z,10.65
2019-05-10T03:28:19.430Z,10.65
2019-05-10T03:29:24.060Z,10.67
2019-05-10T03:30:28.514Z,10.67
2019-05-10T03:31:33.219Z,10.68
2019-05-10T03:32:37.784Z,10.68
2019-05-10T03:33:42.559Z,10.67
2019-05-10T03:34:47.889Z,10.68
2019-05-10T03:35:52.597Z,10.64
2019-05-10T03:36:57.233Z,10.62
2019-05-10T03:38:02.226Z,10.64
2019-05-10T03:39:07.205Z,10.63
2019-05-10T03:40:12.501Z,10.66
2019-05-10T03:41:16.946Z,10.64
2019-05-10T03:42:21.605Z,10.54
2019-05-10T03:43:26.042Z,10.47
2019-05-10T03:44:30.666Z,10.49
2019-05-10T03:45:35.103Z,10.53
2019-05-10T03:46:39.746Z,10.53
2019-05-10T03:47:44.201Z,10.57
2019-05-10T03:48:48.819Z,10.58
2019-05-10T03:49:53.541Z,10.52
2019-05-10T03:50:58.187Z,10.51
2019-05-10T03:52:02.639Z,10.55
2019-05-10T03:53:07.663Z,10.60
2019-05-10T03:54:12.472Z,10.62
2019-05-10T03:55:17.399Z,10.63
2019-05-10T03:56:21.834Z,10.65
2019-05-10T03:57:26.479Z,10.70
2019-05-10T03:58:31.224Z,10.71
2019-05-10T03:59:35.836Z,10.70
2019-05-10T04:00:40.279Z,10.71
2019-05-10T04:01:44.931Z,10.71
2019-05-10T04:02:49.436Z,10.72
2019-05-10T04:03:54.063Z,10.73
2019-05-10T04:04:58.827Z,10.71
2019-05-10T04:06:03.457Z,10.62
2019-05-10T04:07:08.272Z,10.67
2019-05-10T04:08:12.895Z,10.74
2019-05-10T04:09:17.352Z,10.80
2019-05-10T04:10:21.971Z,10.84
2019-05-10T04:11:27.742Z,10.84
2019-05-10T04:12:32.393Z,10.85
2019-05-10T04:13:36.839Z,10.84
2019-05-10T04:14:41.740Z,10.86
2019-05-10T04:15:47.252Z,10.91
2019-05-10T04:16:51.903Z,10.92
2019-05-10T04:17:56.336Z,10.92
2019-05-10T04:19:00.964Z,10.96
2019-05-10T04:20:09.356Z,10.97
2019-05-10T04:21:15.080Z,11.04
2019-05-10T04:22:19.870Z,11.04
2019-05-10T04:23:24.498Z,11.03
2019-05-10T04:24:28.956Z,11.03
2019-05-10T04:25:33.573Z,11.00
2019-05-10T04:26:38.029Z,10.98
2019-05-10T04:27:42.666Z,10.96
2019-05-10T04:28:47.106Z,10.99
2019-05-10T04:29:51.740Z,11.01
2019-05-10T04:30:56.550Z,11.03
2019-05-10T04:32:01.198Z,11.02
2019-05-10T04:33:05.632Z,11.01
2019-05-10T04:34:10.276Z,11.01
2019-05-10T04:35:14.759Z,11.01
2019-05-10T04:36:19.387Z,11.04
2019-05-10T04:37:23.845Z,11.09
2019-05-10T04:38:28.763Z,11.12
2019-05-10T04:39:33.206Z,11.13
2019-05-10T04:40:37.832Z,11.14
2019-05-10T04:41:42.293Z,11.14
2019-05-10T04:42:46.933Z,11.17
2019-05-10T04:43:51.371Z,11.22
2019-05-10T04:44:55.995Z,11.24
2019-05-10T04:46:00.437Z,11.27
2019-05-10T04:47:05.085Z,11.28
2019-05-10T04:48:09.541Z,11.32
2019-05-10T04:49:14.173Z,11.33
2019-05-10T04:50:18.623Z,11.39
2019-05-10T04:51:23.244Z,11.39
2019-05-10T04:52:27.720Z,11.42
2019-05-10T04:53:32.342Z,11.45
2019-05-10T04:54:36.789Z,11.43
2019-05-10T04:55:41.406Z,11.48
2019-05-10T04:56:45.852Z,11.51
2019-05-10T04:57:51.454Z,11.54
2019-05-10T04:58:56.033Z,11.60
2019-05-10T05:00:00.663Z,11.57
2019-05-10T05:01:05.103Z,11.60
2019-05-10T05:02:09.735Z,11.66
2019-05-10T05:03:14.198Z,11.67
2019-05-10T05:04:18.826Z,11.68
2019-05-10T05:05:23.715Z,11.72
2019-05-10T05:06:28.674Z,11.73
2019-05-10T05:07:33.455Z,11.76
2019-05-10T05:08:38.076Z,11.80
2019-05-10T05:09:42.517Z,11.81
2019-05-10T05:10:47.503Z,11.87
2019-05-10T05:11:51.941Z,11.86
2019-05-10T05:12:57.902Z,11.89
2019-05-10T05:14:02.330Z,11.90
2019-05-10T05:15:09.451Z,11.90
2019-05-10T05:16:13.879Z,11.96
2019-05-10T05:17:18.509Z,12.03
2019-05-10T05:18:22.959Z,12.01
2019-05-10T05:19:27.583Z,12.04
2019-05-10T05:20:32.038Z,12.04
2019-05-10T05:21:36.644Z,12.09
2019-05-10T05:22:41.380Z,12.14
2019-05-10T05:23:46.003Z,12.14
2019-05-10T05:24:55.257Z,12.18
2019-05-10T05:25:56.766Z,12.25
2019-05-10T05:27:01.197Z,12.28
2019-05-10T05:28:08.283Z,12.33
2019-05-10T05:29:11.988Z,12.40
2019-05-10T05:30:17.644Z,12.41
2019-05-10T05:31:23.169Z,12.44
2019-05-10T05:32:27.848Z,12.52
2019-05-10T05:33:32.305Z,12.50
2019-05-10T05:34:36.933Z,12.54
2019-05-10T05:35:41.532Z,12.60
2019-05-10T05:36:47.110Z,12.64
2019-05-10T05:37:51.577Z,12.61
2019-05-10T05:38:56.506Z,12.62
2019-05-10T05:40:00.945Z,12.65
2019-05-10T05:41:05.562Z,12.69
2019-05-10T05:42:10.034Z,12.76
2019-05-10T05:43:14.687Z,12.78
2019-05-10T05:44:20.369Z,12.73
2019-05-10T05:45:28.307Z,12.85
2019-05-10T05:46:31.880Z,12.77
2019-05-10T05:47:37.675Z,12.86
2019-05-10T05:48:42.943Z,12.92
2019-05-10T05:49:47.560Z,13.06
2019-05-10T05:50:51.999Z,13.10
2019-05-10T05:51:56.619Z,13.14
2019-05-10T05:53:01.091Z,13.14
2019-05-10T05:54:05.763Z,13.16
2019-05-10T05:55:10.575Z,13.16
2019-05-10T05:56:15.195Z,13.23
2019-05-10T05:57:22.247Z,13.32
2019-05-10T05:58:27.298Z,13.34
2019-05-10T05:59:32.480Z,13.33
2019-05-10T06:00:44.077Z,13.27
2019-05-10T06:01:43.584Z,13.32
2019-05-10T06:02:48.199Z,13.41
2019-05-10T06:03:52.657Z,13.42
2019-05-10T06:04:57.606Z,13.46
2019-05-10T06:06:02.050Z,13.54
2019-05-10T06:07:06.985Z,13.49
2019-05-10T06:08:22.734Z,13.49
2019-05-10T06:09:17.777Z,13.42
2019-05-10T06:10:22.213Z,13.52
2019-05-10T06:11:29.757Z,13.59
2019-05-10T06:12:32.961Z,13.59
2019-05-10T06:13:38.023Z,13.60
2019-05-10T06:14:43.084Z,13.55
2019-05-10T06:15:48.837Z,13.48
2019-05-10T06:16:53.270Z,13.56
2019-05-10T06:18:03.375Z,13.60
2019-05-10T06:19:04.057Z,13.68
2019-05-10T06:20:09.118Z,13.67
2019-05-10T06:21:17.762Z,13.78
2019-05-10T06:22:20.171Z,13.92
2019-05-10T06:23:29.146Z,14.05
2019-05-10T06:24:34.368Z,14.20
2019-05-10T06:25:40.007Z,14.35
2019-05-10T06:26:44.318Z,14.39
2019-05-10T06:27:48.774Z,14.20
2019-05-10T06:29:04.243Z,14.29
2019-05-10T06:29:59.547Z,14.32
2019-05-10T06:31:04.478Z,14.37
2019-05-10T06:32:08.914Z,14.24
2019-05-10T06:33:13.584Z,14.17
2019-05-10T06:34:19.111Z,14.17
2019-05-10T06:35:24.709Z,13.92
2019-05-10T06:36:29.518Z,13.94
2019-05-10T06:37:34.525Z,13.80
2019-05-10T06:38:39.107Z,13.87
2019-05-10T06:39:43.823Z,14.16
2019-05-10T06:40:48.323Z,14.41
2019-05-10T06:41:56.131Z,14.56
2019-05-10T06:43:00.764Z,14.66
2019-05-10T06:44:05.483Z,14.53
2019-05-10T06:45:14.819Z,14.49
2019-05-10T06:46:17.243Z,14.74
2019-05-10T06:47:22.132Z,15.11
2019-05-10T06:48:32.947Z,14.98
2019-05-10T06:49:33.185Z,15.13
2019-05-10T06:50:37.806Z,15.05
2019-05-10T06:51:48.303Z,15.11
2019-05-10T06:52:51.856Z,15.12
2019-05-10T06:53:55.308Z,15.27
2019-05-10T06:54:59.978Z,15.09
2019-05-10T06:56:04.488Z,15.24
2019-05-10T06:57:11.195Z,15.46
2019-05-10T06:58:15.331Z,15.59
2019-05-10T06:59:24.898Z,15.68
2019-05-10T07:00:26.141Z,15.80
2019-05-10T07:01:30.938Z,15.86
2019-05-10T07:02:35.385Z,16.04
2019-05-10T07:03:40.306Z,15.75
2019-05-10T07:04:47.839Z,15.72
2019-05-10T07:05:52.458Z,15.55
2019-05-10T07:06:57.184Z,15.49
2019-05-10T07:08:13.459Z,15.57
2019-05-10T07:09:08.300Z,15.54
2019-05-10T07:10:19.005Z,15.49
2019-05-10T07:11:19.919Z,15.31
2019-05-10T07:12:24.540Z,15.28
2019-05-10T07:13:28.974Z,15.46
2019-05-10T07:14:33.624Z,15.44
2019-05-10T07:15:41.916Z,15.42
2019-05-10T07:16:44.384Z,15.61
2019-05-10T07:17:48.829Z,15.76
2019-05-10T07:18:54.734Z,15.67
2019-05-10T07:20:00.889Z,15.84
2019-05-10T07:21:06.729Z,15.73
2019-05-10T07:22:12.501Z,15.65
2019-05-10T07:23:17.128Z,15.59
2019-05-10T07:24:24.875Z,15.43
2019-05-10T07:25:27.915Z,15.44
2019-05-10T07:26:32.668Z,15.56
2019-05-10T07:27:38.668Z,15.68
2019-05-10T07:28:43.304Z,15.83
2019-05-10T07:29:47.942Z,15.90
2019-05-10T07:30:53.336Z,15.96
2019-05-10T07:31:57.962Z,15.93
2019-05-10T07:33:02.401Z,16.09
2019-05-10T07:34:09.659Z,15.90
2019-05-10T07:35:13.375Z,16.01
2019-05-10T07:36:20.789Z,16.10
2019-05-10T07:37:24.182Z,16.13
2019-05-10T07:38:30.813Z,16.18
2019-05-10T07:39:36.245Z,16.02
2019-05-10T07:40:41.208Z,16.06
2019-05-10T07:41:45.705Z,16.37
2019-05-10T07:42:50.339Z,16.60
2019-05-10T07:44:00.900Z,16.84
2019-05-10T07:45:01.122Z,17.02
2019-05-10T07:46:06.822Z,16.93
2019-05-10T07:47:12.255Z,16.87
2019-05-10T07:48:16.692Z,16.82
2019-05-10T07:49:23.963Z,16.89
2019-05-10T07:50:27.847Z,16.93
2019-05-10T07:51:32.796Z,16.80
2019-05-10T07:52:43.320Z,16.85
2019-05-10T07:53:43.567Z,16.84
2019-05-10T07:54:48.091Z,17.04
2019-05-10T07:55:53.031Z,17.08
2019-05-10T07:56:57.738Z,17.15
2019-05-10T07:58:04.912Z,17.03
2019-05-10T07:59:08.493Z,17.24
2019-05-10T08:00:14.470Z,17.17
2019-05-10T08:01:30.458Z,16.86
2019-05-10T08:02:25.510Z,16.79
2019-05-10T08:03:29.962Z,16.60
2019-05-10T08:04:34.567Z,16.78
2019-05-10T08:05:39.356Z,16.60
2019-05-10T08:06:47.786Z,16.81
2019-05-10T08:07:50.097Z,16.76
2019-05-10T08:08:55.430Z,16.83
2019-05-10T08:10:04.610Z,16.49
2019-05-10T08:11:08.650Z,16.39
2019-05-10T08:12:13.185Z,16.20
2019-05-10T08:13:23.384Z,16.28
2019-05-10T08:14:25.451Z,16.49
2019-05-10T08:15:34.565Z,16.31
2019-05-10T08:16:38.601Z,16.29
2019-05-10T08:17:45.524Z,16.28
2019-05-10T08:18:49.908Z,16.64
2019-05-10T08:19:54.882Z,16.84
2019-05-10T08:21:02.469Z,16.83
2019-05-10T08:22:07.504Z,16.77
2019-05-10T08:23:13.082Z,16.70
2019-05-10T08:24:17.810Z,17.08
2019-05-10T08:25:23.054Z,17.36
2019-05-10T08:26:27.956Z,17.40
2019-05-10T08:27:32.532Z,16.99
2019-05-10T08:28:39.820Z,17.14
2019-05-10T08:29:43.233Z,17.21
2019-05-10T08:30:57.779Z,16.81
2019-05-10T08:31:56.062Z,17.16
2019-05-10T08:33:09.109Z,17.33
2019-05-10T08:34:07.391Z,17.37
2019-05-10T08:35:17.005Z,17.52
2019-05-10T08:36:18.336Z,17.62
2019-05-10T08:37:31.034Z,17.57
2019-05-10T08:38:31.788Z,17.55
2019-05-10T08:39:45.309Z,17.59
2019-05-10T08:40:42.863Z,17.59
2019-05-10T08:42:01.356Z,17.98
2019-05-10T08:43:03.261Z,18.17
2019-05-10T08:44:04.591Z,18.08
2019-05-10T08:45:08.984Z,18.03
2019-05-10T08:46:14.084Z,17.87
2019-05-10T08:47:25.107Z,17.53
2019-05-10T08:48:27.595Z,17.69
2019-05-10T08:49:42.457Z,17.83
2019-05-10T08:50:49.279Z,17.59
2019-05-10T08:51:49.126Z,17.40
2019-05-10T08:52:54.184Z,17.32
2019-05-10T08:54:01.766Z,17.23
2019-05-10T08:55:07.850Z,16.97
2019-05-10T08:56:20.886Z,16.54
2019-05-10T08:57:19.005Z,16.67
2019-05-10T08:58:31.276Z,16.90
2019-05-10T08:59:33.914Z,17.02
2019-05-10T09:00:53.294Z,16.73
2019-05-10T09:01:50.506Z,16.75
2019-05-10T09:02:52.177Z,16.82
2019-05-10T09:04:02.006Z,17.03
2019-05-10T09:05:05.209Z,17.08
2019-05-10T09:06:14.213Z,17.00
2019-05-10T09:07:16.042Z,17.05
2019-05-10T09:08:24.796Z,17.12
2019-05-10T09:09:28.037Z,17.26
2019-05-10T09:10:32.699Z,17.40
2019-05-10T09:11:37.448Z,17.37
2019-05-10T09:12:51.115Z,17.33
2019-05-10T09:13:48.551Z,17.62
2019-05-10T09:14:57.311Z,17.93
2019-05-10T09:16:02.245Z,18.37
2019-05-10T09:17:06.528Z,18.61
2019-05-10T09:18:12.806Z,18.19
2019-05-10T09:19:18.939Z,18.04
2019-05-10T09:20:26.380Z,17.88
2019-05-10T09:21:32.169Z,17.53
2019-05-10T09:22:38.616Z,17.52
2019-05-10T09:23:42.815Z,16.93
2019-05-10T09:24:49.085Z,17.07
2019-05-10T09:25:53.996Z,17.13
2019-05-10T09:26:58.460Z,16.92
2019-05-10T09:28:11.739Z,16.78
2019-05-10T09:29:09.215Z,17.01
2019-05-10T09:30:18.501Z,17.00
2019-05-10T09:31:25.553Z,17.58
2019-05-10T09:32:29.383Z,17.88
2019-05-10T09:33:34.372Z,17.90
2019-05-10T09:34:39.345Z,17.46
2019-05-10T09:35:47.537Z,17.26
2019-05-10T09:36:53.009Z,17.10
2019-05-10T09:37:58.525Z,16.89
2019-05-10T09:39:04.123Z,16.81
2019-05-10T09:40:09.975Z,16.75
2019-05-10T09:41:15.227Z,16.74
2019-05-10T09:42:26.843Z,16.61
2019-05-10T09:43:27.006Z,16.57
2019-05-10T09:44:32.992Z,16.37
2019-05-10T09:45:37.771Z,16.35
2019-05-10T09:46:42.436Z,16.32
2019-05-10T09:47:47.928Z,16.41
2019-05-10T09:48:54.650Z,16.93
2019-05-10T09:49:59.109Z,17.50
2019-05-10T09:51:04.486Z,17.68
2019-05-10T09:52:12.720Z,17.80
2019-05-10T09:53:25.395Z,17.68
2019-05-10T09:54:28.589Z,17.52
2019-05-10T09:55:29.710Z,17.47
2019-05-10T09:56:39.634Z,17.30
2019-05-10T09:57:40.795Z,17.28
2019-05-10T09:58:45.408Z,17.41
2019-05-10T09:59:49.868Z,17.59
2019-05-10T10:01:10.309Z,17.45
2019-05-10T10:02:05.025Z,17.64
2019-05-10T10:03:08.224Z,17.86
2019-05-10T10:04:13.343Z,17.94
2019-05-10T10:05:18.831Z,17.87
2019-05-10T10:06:23.273Z,17.96
2019-05-10T10:07:33.550Z,18.15
2019-05-10T10:08:38.274Z,18.20
2019-05-10T10:09:44.862Z,18.25
2019-05-10T10:10:48.482Z,18.40
2019-05-10T10:11:57.671Z,18.48
2019-05-10T10:13:08.435Z,18.70
2019-05-10T10:14:07.572Z,18.77
2019-05-10T10:15:18.818Z,18.80
2019-05-10T10:16:19.393Z,18.84
2019-05-10T10:17:24.147Z,18.54
2019-05-10T10:18:28.957Z,18.44
2019-05-10T10:19:33.421Z,18.35
2019-05-10T10:20:43.512Z,18.73
2019-05-10T10:21:44.548Z,18.84
2019-05-10T10:22:54.327Z,18.95
2019-05-10T10:24:00.013Z,18.90
2019-05-10T10:25:01.964Z,18.71
2019-05-10T10:26:07.322Z,18.67
2019-05-10T10:27:13.386Z,18.51
2019-05-10T10:28:19.935Z,18.59
2019-05-10T10:29:28.627Z,18.70
2019-05-10T10:30:31.496Z,18.77
2019-05-10T10:31:48.471Z,18.86
2019-05-10T10:32:44.607Z,18.81
2019-05-10T10:33:59.670Z,18.71
2019-05-10T10:34:57.909Z,18.44
2019-05-10T10:36:10.005Z,17.99
2019-05-10T10:37:08.837Z,17.71
2019-05-10T10:38:13.586Z,17.46
2019-05-10T10:39:22.981Z,17.14
2019-05-10T10:40:24.651Z,16.99
2019-05-10T10:41:31.808Z,16.75
2019-05-10T10:42:37.774Z,16.52
2019-05-10T10:43:41.666Z,16.41
2019-05-10T10:44:48.313Z,16.03
2019-05-10T10:45:52.577Z,15.85
2019-05-10T10:46:58.219Z,15.63
2019-05-10T10:48:08.511Z,15.47
2019-05-10T10:49:10.545Z,15.11
2019-05-10T10:50:17.265Z,15.17
2019-05-10T10:51:21.497Z,15.27
2019-05-10T10:52:27.833Z,15.36
2019-05-10T10:53:32.526Z,15.36
2019-05-10T10:54:39.793Z,15.48
2019-05-10T10:55:46.106Z,15.77
2019-05-10T10:56:49.574Z,16.04
2019-05-10T10:57:54.206Z,16.17
2019-05-10T10:58:58.673Z,16.25
2019-05-10T11:00:03.869Z,16.57
2019-05-10T11:01:19.979Z,16.28
2019-05-10T11:02:31.404Z,16.53
2019-05-10T11:03:23.846Z,16.74
2019-05-10T11:04:28.315Z,16.87
2019-05-10T11:05:32.757Z,16.71
2019-05-10T11:06:37.396Z,16.86
2019-05-10T11:07:47.206Z,16.82
2019-05-10T11:08:48.547Z,16.68
2019-05-10T11:10:04.986Z,16.73
2019-05-10T11:11:00.535Z,16.77
2019-05-10T11:12:05.471Z,16.83
2019-05-10T11:13:14.015Z,16.93
2019-05-10T11:14:16.251Z,17.18
2019-05-10T11:15:26.108Z,17.30
2019-05-10T11:16:27.619Z,17.59
2019-05-10T11:17:32.386Z,17.68
2019-05-10T11:18:36.896Z,17.58
2019-05-10T11:19:41.859Z,17.95
2019-05-10T11:20:49.503Z,17.61
2019-05-10T11:21:53.082Z,17.56
2019-05-10T11:22:59.482Z,17.73
2019-05-10T11:24:04.193Z,17.53
2019-05-10T11:25:10.391Z,17.61
2019-05-10T11:26:15.459Z,17.49
2019-05-10T11:27:20.016Z,17.74
2019-05-10T11:28:24.651Z,17.69
2019-05-10T11:29:30.875Z,17.52
2019-05-10T11:30:35.629Z,17.65
2019-05-10T11:31:41.354Z,18.41
2019-05-10T11:32:46.490Z,18.97
2019-05-10T11:33:56.024Z,19.58
2019-05-10T11:34:57.597Z,20.16
2019-05-10T11:36:04.108Z,20.20
2019-05-10T11:37:08.383Z,20.24
2019-05-10T11:38:16.252Z,19.75
2019-05-10T11:39:25.974Z,19.65
2019-05-10T11:40:31.037Z,19.06
2019-05-10T11:41:31.944Z,18.25
2019-05-10T11:42:37.452Z,18.07
2019-05-10T11:43:42.799Z,18.08
2019-05-10T11:44:50.910Z,18.39
2019-05-10T11:45:54.559Z,18.86
2019-05-10T11:47:01.354Z,19.46
2019-05-10T11:48:05.608Z,19.73
2019-05-10T11:49:10.928Z,19.54
2019-05-10T11:50:28.892Z,19.36
2019-05-10T11:51:23.343Z,18.55
2019-05-10T11:52:29.120Z,18.42
2019-05-10T11:53:34.118Z,18.03
2019-05-10T11:54:38.782Z,18.15
2019-05-10T11:55:43.700Z,17.93
2019-05-10T11:56:48.324Z,17.64
2019-05-10T11:59:02.151Z,17.49
2019-05-10T12:00:14.284Z,17.60
2019-05-10T12:01:18.990Z,17.59
2019-05-10T12:02:37.005Z,17.65
2019-05-10T12:03:26.178Z,17.66
2019-05-10T12:04:38.960Z,17.48
2019-05-10T12:05:37.317Z,17.44
2019-05-10T12:06:49.923Z,17.52
2019-05-10T12:07:51.797Z,17.48
2019-05-10T12:09:01.202Z,17.50
2019-05-10T12:11:21.083Z,17.86
2019-05-10T12:12:14.088Z,18.06
2019-05-10T12:13:24.358Z,18.03
2019-05-10T12:14:25.241Z,18.20
2019-05-10T12:15:31.825Z,18.07
2019-05-10T12:16:35.976Z,18.18
2019-05-10T12:17:46.345Z,18.44
2019-05-10T12:19:05.511Z,18.42
2019-05-10T12:19:56.289Z,18.55
2019-05-10T12:21:08.921Z,18.59
2019-05-10T12:22:06.001Z,18.75
2019-05-10T12:23:13.484Z,18.86
2019-05-10T12:25:42.716Z,18.71
2019-05-10T12:26:16.688Z,17.31
2019-05-10T12:26:19.671Z,18.75
2019-05-10T12:26:36.094Z,17.82
2019-05-10T12:27:45.209Z,18.59
2019-05-10T12:28:41.678Z,18.64
2019-05-10T12:29:51.323Z,18.57
2019-05-10T12:30:52.457Z,18.73
2019-05-10T12:31:57.220Z,19.03
2019-05-10T12:33:08.048Z,19.19
2019-05-10T12:34:14.278Z,19.28
2019-05-10T12:35:15.577Z,19.33
2019-05-10T12:36:25.581Z,19.29
2019-05-10T12:37:27.297Z,19.69
2019-05-10T12:38:35.870Z,19.91
2019-05-10T12:39:39.029Z,20.06
2019-05-10T12:40:45.865Z,20.35
2019-05-10T12:41:52.887Z,20.57
2019-05-10T12:42:56.140Z,20.76
2019-05-10T12:44:04.152Z,20.85
2019-05-10T12:45:08.070Z,21.36
2019-05-10T12:46:12.494Z,21.33
2019-05-10T12:47:17.189Z,21.30
2019-05-10T12:48:23.521Z,20.61
2019-05-10T12:49:28.266Z,20.29
2019-05-10T12:50:32.732Z,20.05
2019-05-10T12:51:37.346Z,19.82
2019-05-10T12:52:43.187Z,19.51
2019-05-10T12:53:49.818Z,19.35
2019-05-10T12:54:54.248Z,19.60
2019-05-10T12:55:58.893Z,19.81
2019-05-10T12:57:03.325Z,19.51
2019-05-10T12:58:09.212Z,19.66
2019-05-10T12:59:13.655Z,19.99
2019-05-10T13:00:18.360Z,20.19
2019-05-10T13:01:25.507Z,20.18
2019-05-10T13:02:29.414Z,20.24
2019-05-10T13:03:33.940Z,19.59
2019-05-10T13:04:40.877Z,19.15
2019-05-10T13:05:52.587Z,18.76
2019-05-10T13:06:51.030Z,18.70
2019-05-10T13:07:55.472Z,18.29
2019-05-10T13:09:00.381Z,18.18
2019-05-10T13:10:08.326Z,18.11
2019-05-10T13:11:13.307Z,18.16
2019-05-10T13:12:18.030Z,18.14
2019-05-10T13:13:25.547Z,18.03
2019-05-10T13:14:29.394Z,18.06
2019-05-10T13:15:34.378Z,17.96
2019-05-10T13:16:39.087Z,17.64
2019-05-10T13:17:50.243Z,17.61
2019-05-10T13:18:52.602Z,17.56
2019-05-10T13:19:58.343Z,17.44
2019-05-10T13:21:02.767Z,17.51
2019-05-10T13:22:08.350Z,17.34
2019-05-10T13:23:16.168Z,17.30
2019-05-10T13:24:19.125Z,17.26
2019-05-10T13:25:23.558Z,17.18
2019-05-10T13:26:28.195Z,17.02
2019-05-10T13:27:32.624Z,17.08
2019-05-10T13:28:37.528Z,16.90
2019-05-10T13:29:47.115Z,16.95
2019-05-10T13:30:48.281Z,16.73
2019-05-10T13:31:52.725Z,16.67
2019-05-10T13:32:58.834Z,16.33
2019-05-10T13:34:03.748Z,16.41
2019-05-10T13:35:08.446Z,16.49
2019-05-10T13:36:12.887Z,16.48
2019-05-10T13:37:23.591Z,16.36
2019-05-10T13:38:24.604Z,16.43
2019-05-10T13:39:29.374Z,16.31
2019-05-10T13:40:38.901Z,16.30
2019-05-10T13:41:40.507Z,16.27
2019-05-10T13:42:46.069Z,16.22
2019-05-10T13:43:51.135Z,16.33
2019-05-10T13:44:55.879Z,16.16
2019-05-10T13:46:00.792Z,16.19
2019-05-10T13:47:05.368Z,16.13
2019-05-10T13:48:10.319Z,16.09
2019-05-10T13:49:14.759Z,16.28
2019-05-10T13:50:19.800Z,16.34
2019-05-10T13:51:24.286Z,16.26
2019-05-10T13:52:37.304Z,16.33
2019-05-10T13:53:35.067Z,16.28
2019-05-10T13:54:39.694Z,16.35
2019-05-10T13:55:44.305Z,16.40
2019-05-10T13:56:52.257Z,16.36
2019-05-10T13:57:55.090Z,16.43
2019-05-10T13:59:13.580Z,16.54
2019-05-10T14:00:08.772Z,16.62
2019-05-10T14:01:14.891Z,16.78
2019-05-10T14:02:23.024Z,16.89
2019-05-10T14:03:26.100Z,16.83
2019-05-10T14:04:34.017Z,16.93
2019-05-10T14:05:39.937Z,17.02
2019-05-10T14:06:43.398Z,16.89
2019-05-10T14:07:52.286Z,16.98